21:25
Airports
Links
Donate
Help keep this website running!
PayPal
Bitcoin
MATER
No METAR for LIMN
Current Weather Conditions at
No weather report for LIMN
TAF
TAF LIMN 201400Z 2015/2024 VRB03KT 8000 SCT030 TEMPO 2018/2021 5000 BR
Forecast at LIMN
15:00 20-02-18 to 00:00 21-02-18
Wind:3 Knots from 360°
Visibility:4.97 statute miles
3000SCT Scattered
TEMPO 18:00 20-02-18 to 21:00 20-02-18
BR
Visibility:3.11 statute miles